Time;durP1;ratioP1;P1;durP2;ratioP2;P2;SDS_P1;SDS_P2;PMS_P1;PMS_P2;Temp;Humidity;BMP_temperature;BMP_pressure;BME280_temperature;BME280_humidity;BME280_pressure;Samples;Min_cycle;Max_cycle;Signal;HPM_P1;HPM_P2
2023/08/22 00:00:13;;;;;;;;;;;;;;;17.32;100.00;102057.38;5050930;28;20003;-72
2023/08/22 00:02:38;;;;;;;;;;;;;;;17.32;100.00;102051.94;5066135;28;20285;-72
2023/08/22 00:05:03;;;;;;;;;;;;;;;17.30;100.00;102043.06;5035421;28;19920;-72
2023/08/22 00:07:28;;;;;;;;;;;;;;;17.30;100.00;102042.19;5034988;28;19921;-72
2023/08/22 00:09:54;;;;;;;;;;;;;;;17.31;100.00;102043.91;5034797;28;20003;-72
2023/08/22 00:12:19;;;;;;;;;;;;;;;17.33;100.00;102044.63;5034822;28;19927;-72
2023/08/22 00:14:44;;;;;;;;;;;;;;;17.34;100.00;102039.09;5049255;28;19989;-72
2023/08/22 00:17:10;;;;;;;;;;;;;;;17.36;100.00;102037.06;5049224;28;19920;-72
2023/08/22 00:19:36;;;;;;;;;;;;;;;17.30;100.00;102032.22;5035299;28;20747;-72
2023/08/22 00:22:01;;;;;;;;;;;;;;;17.26;100.00;102025.31;5033960;28;19946;-72
2023/08/22 00:24:27;;;;;;;;;;;;;;;17.21;100.00;102025.75;5035042;28;20324;-72
2023/08/22 00:26:53;;;;;;;;;;;;;;;17.22;100.00;102042.88;5035127;28;19921;-72
2023/08/22 00:29:19;;;;;;;;;;;;;;;17.19;100.00;102033.16;5034521;28;19917;-72
2023/08/22 00:31:44;;;;;;;;;;;;;;;17.15;100.00;102042.56;5017359;28;19928;-72
2023/08/22 00:34:09;;;;;;;;;;;;;;;17.17;100.00;102040.56;5049786;28;20371;-72
2023/08/22 00:36:34;;;;;;;;;;;;;;;17.18;100.00;102034.16;5030110;28;19964;-72
2023/08/22 00:38:59;;;;;;;;;;;;;;;17.12;100.00;102014.81;5034351;28;20024;-72
2023/08/22 00:41:25;;;;;;;;;;;;;;;17.12;100.00;102022.94;5033822;28;19951;-72
2023/08/22 00:43:50;;;;;;;;;;;;;;;17.08;100.00;102028.63;5017063;28;19924;-72
2023/08/22 00:46:15;;;;;;;;;;;;;;;17.08;100.00;102025.91;5034444;28;19958;-72
2023/08/22 00:48:41;;;;;;;;;;;;;;;17.11;100.00;102032.06;5017118;28;19959;-72
2023/08/22 00:51:06;;;;;;;;;;;;;;;17.11;100.00;102016.66;5017604;28;20003;-73
2023/08/22 00:53:32;;;;;;;;;;;;;;;16.94;100.00;101983.72;5031943;28;20104;-73
2023/08/22 00:55:57;;;;;;;;;;;;;;;17.10;100.00;102012.25;5030403;28;19921;-72
2023/08/22 00:58:23;;;;;;;;;;;;;;;17.09;100.00;102005.94;5034557;28;19970;-72
2023/08/22 01:00:48;;;;;;;;;;;;;;;17.12;100.00;102002.13;5045031;28;20063;-72
2023/08/22 01:03:13;;;;;;;;;;;;;;;17.17;100.00;101998.97;5064179;28;19943;-72
2023/08/22 01:05:41;;;;;;;;;;;;;;;17.23;100.00;102002.00;5066751;28;20020;-72
2023/08/22 01:08:24;;;;;;;;;;;;;;;17.22;100.00;101999.44;5033109;28;20023;-72
2023/08/22 01:10:50;;;;;;;;;;;;;;;17.17;100.00;102005.28;5035955;28;19927;-72
2023/08/22 01:13:25;;;;;;;;;;;;;;;17.15;100.00;102003.69;5044573;28;20286;-72
2023/08/22 01:15:50;;;;;;;;;;;;;;;17.14;100.00;102004.69;5050439;28;20426;-72
2023/08/22 01:18:15;;;;;;;;;;;;;;;17.13;100.00;102001.13;5066299;28;19924;-72
2023/08/22 01:20:40;;;;;;;;;;;;;;;17.09;100.00;102014.06;5034251;28;19935;-72
2023/08/22 01:23:06;;;;;;;;;;;;;;;17.06;100.00;102008.94;5033682;28;20330;-72
2023/08/22 01:25:31;;;;;;;;;;;;;;;17.04;100.00;102007.34;5033138;28;19995;-72
2023/08/22 01:28:11;;;;;;;;;;;;;;;17.04;100.00;102013.63;5066659;28;20011;-72
2023/08/22 01:30:42;;;;;;;;;;;;;;;17.09;100.00;102013.22;5034939;28;19924;-72
2023/08/22 01:33:11;;;;;;;;;;;;;;;17.17;100.00;102007.13;5032100;28;19917;-72
2023/08/22 01:35:36;;;;;;;;;;;;;;;17.00;100.00;101974.19;5032956;28;19929;-72
2023/08/22 01:38:01;;;;;;;;;;;;;;;17.18;100.00;101995.28;5033276;28;19929;-72
2023/08/22 01:40:26;;;;;;;;;;;;;;;17.12;100.00;101998.53;5066968;28;19917;-72
2023/08/22 01:42:52;;;;;;;;;;;;;;;17.07;100.00;101993.50;5048564;28;20283;-72
2023/08/22 01:45:17;;;;;;;;;;;;;;;17.02;100.00;101991.22;5016921;28;20256;-72
2023/08/22 01:47:42;;;;;;;;;;;;;;;16.98;100.00;101989.75;5047998;28;20011;-72
2023/08/22 01:50:07;;;;;;;;;;;;;;;16.90;100.00;101989.50;5064583;28;19936;-72
2023/08/22 01:52:33;;;;;;;;;;;;;;;16.85;100.00;101987.22;5032133;28;19992;-72
2023/08/22 01:54:58;;;;;;;;;;;;;;;16.80;100.00;101981.31;5032574;28;20000;-72
2023/08/22 01:57:23;;;;;;;;;;;;;;;16.76;100.00;101994.31;5065330;28;19927;-72
2023/08/22 01:59:48;;;;;;;;;;;;;;;16.71;100.00;101995.66;5018270;28;19920;-72
2023/08/22 02:02:14;;;;;;;;;;;;;;;16.69;100.00;101984.97;5064303;28;19920;-72
2023/08/22 02:04:39;;;;;;;;;;;;;;;16.68;100.00;101979.69;5067132;28;20352;-72
2023/08/22 02:07:04;;;;;;;;;;;;;;;16.69;100.00;101990.38;5030612;28;19924;-72
2023/08/22 02:09:29;;;;;;;;;;;;;;;16.73;100.00;101988.25;5016801;28;19931;-72
2023/08/22 02:11:54;;;;;;;;;;;;;;;16.73;100.00;101990.97;5034934;28;19920;-72
2023/08/22 02:14:20;;;;;;;;;;;;;;;16.76;100.00;101996.13;5043752;28;19921;-72
2023/08/22 02:16:45;;;;;;;;;;;;;;;16.78;100.00;101989.59;5031943;28;19968;-72
2023/08/22 02:19:10;;;;;;;;;;;;;;;16.76;100.00;101985.28;5031750;28;20410;-73
2023/08/22 02:21:36;;;;;;;;;;;;;;;16.78;100.00;101983.31;5031631;28;19924;-73
2023/08/22 02:24:02;;;;;;;;;;;;;;;16.82;100.00;101984.75;5032446;28;19935;-72
2023/08/22 02:26:29;;;;;;;;;;;;;;;16.87;100.00;101978.94;5032681;28;19924;-72
2023/08/22 02:28:54;;;;;;;;;;;;;;;16.86;100.00;101977.22;5033084;28;19932;-72
2023/08/22 02:31:19;;;;;;;;;;;;;;;16.83;100.00;101983.78;5033793;28;19929;-72
2023/08/22 02:33:45;;;;;;;;;;;;;;;16.80;100.00;101992.16;5032420;28;19948;-72
2023/08/22 02:36:10;;;;;;;;;;;;;;;16.70;100.00;101980.38;5033114;28;19924;-72
2023/08/22 02:38:35;;;;;;;;;;;;;;;16.59;100.00;101978.59;5032191;28;19993;-72
2023/08/22 02:41:00;;;;;;;;;;;;;;;16.56;100.00;101984.28;5032251;28;21003;-72
2023/08/22 02:43:25;;;;;;;;;;;;;;;16.52;100.00;101982.84;5062920;28;19916;-72
2023/08/22 02:45:51;;;;;;;;;;;;;;;16.56;100.00;101979.72;5032469;28;19960;-72
2023/08/22 02:48:16;;;;;;;;;;;;;;;16.59;100.00;101976.75;5040979;28;20361;-73
2023/08/22 02:50:41;;;;;;;;;;;;;;;16.59;100.00;101981.31;5063568;28;20264;-72
2023/08/22 02:53:09;;;;;;;;;;;;;;;16.54;100.00;101970.03;5043108;28;19962;-72
2023/08/22 02:55:34;;;;;;;;;;;;;;;16.53;100.00;101973.72;5062537;28;19921;-72
2023/08/22 02:58:00;;;;;;;;;;;;;;;16.55;100.00;101974.47;5031139;28;20260;-72
2023/08/22 03:00:25;;;;;;;;;;;;;;;16.61;100.00;101979.31;5064584;28;19924;-72
2023/08/22 03:02:50;;;;;;;;;;;;;;;16.63;100.00;101977.34;5016419;28;19938;-72
2023/08/22 03:05:15;;;;;;;;;;;;;;;16.61;100.00;101974.78;5033187;28;19928;-72
2023/08/22 03:07:41;;;;;;;;;;;;;;;16.57;100.00;101975.16;5064464;28;19921;-72
2023/08/22 03:10:07;;;;;;;;;;;;;;;16.58;100.00;101974.16;5031633;28;20011;-72
2023/08/22 03:12:33;;;;;;;;;;;;;;;16.58;100.00;101974.16;5061320;28;20359;-72
2023/08/22 03:14:58;;;;;;;;;;;;;;;16.55;100.00;101971.75;5031550;28;20314;-72
2023/08/22 03:17:23;;;;;;;;;;;;;;;16.51;100.00;101981.97;5061960;28;20277;-73
2023/08/22 03:19:48;;;;;;;;;;;;;;;16.51;100.00;101978.41;5031702;28;20307;-72
2023/08/22 03:22:13;;;;;;;;;;;;;;;16.44;100.00;101987.06;5043208;28;19921;-72
2023/08/22 03:24:39;;;;;;;;;;;;;;;16.41;100.00;101973.75;5044283;28;20623;-72
2023/08/22 03:27:04;;;;;;;;;;;;;;;16.39;100.00;101966.78;5032446;28;20663;-72
2023/08/22 03:29:29;;;;;;;;;;;;;;;16.36;100.00;101965.16;5014863;28;19999;-72
2023/08/22 03:31:55;;;;;;;;;;;;;;;16.32;100.00;101966.41;5032010;28;19920;-72
2023/08/22 03:34:20;;;;;;;;;;;;;;;16.33;100.00;101960.88;5063091;28;20359;-72
2023/08/22 03:36:46;;;;;;;;;;;;;;;16.41;100.00;101975.63;5031169;28;19921;-72
2023/08/22 03:39:11;;;;;;;;;;;;;;;16.39;100.00;101972.19;5047971;28;20425;-72
2023/08/22 03:41:36;;;;;;;;;;;;;;;16.32;100.00;101960.97;5031505;28;20114;-72
2023/08/22 03:44:02;;;;;;;;;;;;;;;16.19;100.00;101970.16;5031320;28;19921;-72
2023/08/22 03:46:28;;;;;;;;;;;;;;;16.09;100.00;101966.50;5030838;28;20023;-72
2023/08/22 03:48:53;;;;;;;;;;;;;;;15.98;100.00;101961.97;5013225;28;20031;-72
2023/08/22 03:51:18;;;;;;;;;;;;;;;15.93;100.00;101960.66;5033313;28;19999;-72
2023/08/22 03:53:44;;;;;;;;;;;;;;;15.88;100.00;101959.19;5063150;28;19971;-72
2023/08/22 03:56:09;;;;;;;;;;;;;;;15.83;100.00;101952.41;5031261;28;19928;-72
2023/08/22 03:58:34;;;;;;;;;;;;;;;15.76;100.00;101957.44;5015302;28;20259;-72
2023/08/22 04:01:00;;;;;;;;;;;;;;;15.72;100.00;101958.69;5015882;28;20423;-72
2023/08/22 04:03:25;;;;;;;;;;;;;;;15.69;100.00;101958.94;5062187;28;20007;-72
2023/08/22 04:05:51;;;;;;;;;;;;;;;15.67;100.00;101960.91;5014292;28;20024;-71
2023/08/22 04:08:16;;;;;;;;;;;;;;;15.59;100.00;101959.69;5045031;28;20023;-72
2023/08/22 04:10:42;;;;;;;;;;;;;;;15.52;100.00;101960.31;5033665;28;19920;-72
2023/08/22 04:13:07;;;;;;;;;;;;;;;15.54;100.00;101963.78;5034431;28;19920;-72
2023/08/22 04:15:35;;;;;;;;;;;;;;;15.54;100.00;101963.78;5032084;28;19939;-72
2023/08/22 04:18:00;;;;;;;;;;;;;;;15.52;100.00;101955.75;5059668;28;20003;-72
2023/08/22 04:20:26;;;;;;;;;;;;;;;15.43;100.00;101953.81;5015529;28;20033;-72
2023/08/22 04:22:51;;;;;;;;;;;;;;;15.38;100.00;101951.47;5041369;28;20747;-72
2023/08/22 04:25:16;;;;;;;;;;;;;;;15.35;100.00;101948.16;5029148;28;19913;-72
2023/08/22 04:27:42;;;;;;;;;;;;;;;15.29;100.00;101953.06;5012094;28;19917;-72
2023/08/22 04:30:07;;;;;;;;;;;;;;;15.26;100.00;101949.75;5046455;28;19998;-72
2023/08/22 04:32:32;;;;;;;;;;;;;;;15.23;100.00;101956.25;5030085;28;19928;-72
2023/08/22 04:34:57;;;;;;;;;;;;;;;15.25;100.00;101953.44;5013315;28;19917;-72
2023/08/22 04:37:23;;;;;;;;;;;;;;;15.28;100.00;101956.75;5034244;28;19942;-72
2023/08/22 04:39:48;;;;;;;;;;;;;;;15.28;100.00;101964.88;5016528;28;19929;-72
2023/08/22 04:42:13;;;;;;;;;;;;;;;15.27;100.00;101962.31;5020134;28;20663;-72
2023/08/22 04:44:38;;;;;;;;;;;;;;;15.17;100.00;101962.19;5033250;28;19956;-72
2023/08/22 04:47:04;;;;;;;;;;;;;;;15.11;100.00;101959.97;5017704;28;20351;-72
2023/08/22 04:49:29;;;;;;;;;;;;;;;15.08;100.00;101957.50;5063738;28;20286;-72
2023/08/22 04:51:54;;;;;;;;;;;;;;;15.03;100.00;101955.16;5033671;28;19925;-72
2023/08/22 04:54:19;;;;;;;;;;;;;;;15.08;100.00;101966.50;5033861;28;19979;-72
2023/08/22 04:56:45;;;;;;;;;;;;;;;15.15;100.00;101961.44;5034567;28;20024;-72
2023/08/22 04:59:10;;;;;;;;;;;;;;;15.20;100.00;101967.34;5062679;28;19986;-73
2023/08/22 05:01:35;;;;;;;;;;;;;;;15.19;100.00;101962.94;5035689;28;20311;-72
2023/08/22 05:04:00;;;;;;;;;;;;;;;15.25;100.00;101967.81;5033260;28;20367;-72
2023/08/22 05:06:25;;;;;;;;;;;;;;;15.32;100.00;101960.09;5035785;28;19925;-72
2023/08/22 05:08:51;;;;;;;;;;;;;;;15.29;100.00;101963.91;5066005;28;20240;-72
2023/08/22 05:11:16;;;;;;;;;;;;;;;15.26;100.00;101957.88;5032262;28;20363;-72
2023/08/22 05:13:41;;;;;;;;;;;;;;;15.23;100.00;101966.25;5017167;28;20401;-72
2023/08/22 05:16:06;;;;;;;;;;;;;;;15.21;100.00;101960.97;5045600;28;20027;-72
2023/08/22 05:18:32;;;;;;;;;;;;;;;15.21;100.00;101963.66;5035928;28;20458;-72
2023/08/22 05:20:57;;;;;;;;;;;;;;;15.22;100.00;101970.81;5069286;28;19928;-72
2023/08/22 05:23:22;;;;;;;;;;;;;;;15.24;100.00;101965.25;5034713;28;19948;-72
2023/08/22 05:25:47;;;;;;;;;;;;;;;15.30;100.00;101967.47;5034436;28;20007;-72
2023/08/22 05:28:12;;;;;;;;;;;;;;;15.34;100.00;101965.38;5047231;28;19968;-72
2023/08/22 05:30:38;;;;;;;;;;;;;;;15.36;100.00;101961.53;5050872;28;20000;-72
2023/08/22 05:33:03;;;;;;;;;;;;;;;15.42;100.00;101969.19;5066347;28;20018;-72
2023/08/22 05:35:28;;;;;;;;;;;;;;;15.55;100.00;101969.03;5038039;28;19921;-72
2023/08/22 05:37:54;;;;;;;;;;;;;;;15.65;100.00;101965.59;5047653;28;19929;-72
2023/08/22 05:40:19;;;;;;;;;;;;;;;15.69;100.00;101962.50;5036295;28;20241;-72
2023/08/22 05:42:44;;;;;;;;;;;;;;;15.78;100.00;101969.00;5047875;28;19920;-72
2023/08/22 05:45:09;;;;;;;;;;;;;;;15.90;100.00;101969.88;5060681;28;19974;-72
2023/08/22 05:47:35;;;;;;;;;;;;;;;16.06;100.00;101972.16;5059745;28;20430;-72
2023/08/22 05:50:00;;;;;;;;;;;;;;;16.14;100.00;101971.56;5029632;28;20579;-72
2023/08/22 05:52:25;;;;;;;;;;;;;;;16.42;100.00;101971.94;5020068;28;20378;-72
2023/08/22 05:54:50;;;;;;;;;;;;;;;16.53;100.00;101973.72;5031280;28;20383;-72
2023/08/22 05:57:16;;;;;;;;;;;;;;;16.64;100.00;101976.34;5064776;28;20431;-72
2023/08/22 05:59:41;;;;;;;;;;;;;;;16.85;100.00;101983.63;5035260;28;20326;-72
2023/08/22 06:02:06;;;;;;;;;;;;;;;17.08;100.00;101987.94;5048212;28;20055;-72
2023/08/22 06:04:31;;;;;;;;;;;;;;;17.29;100.00;101984.34;5033181;28;19925;-72
2023/08/22 06:06:56;;;;;;;;;;;;;;;17.43;100.00;101991.25;5050435;28;20272;-72
2023/08/22 06:09:22;;;;;;;;;;;;;;;17.58;100.00;101989.03;5046477;28;20292;-72
2023/08/22 06:11:47;;;;;;;;;;;;;;;17.77;100.00;101990.09;5061348;28;19982;-72
2023/08/22 06:14:12;;;;;;;;;;;;;;;17.91;100.00;101989.66;5047156;28;19971;-72
2023/08/22 06:16:37;;;;;;;;;;;;;;;18.04;100.00;101991.31;5064341;28;20092;-72
2023/08/22 06:19:02;;;;;;;;;;;;;;;18.17;100.00;101994.59;5062295;28;19966;-72
2023/08/22 06:21:28;;;;;;;;;;;;;;;18.29;100.00;101987.16;5034352;28;19929;-72
2023/08/22 06:23:53;;;;;;;;;;;;;;;18.45;100.00;101983.88;5031613;28;19920;-72
2023/08/22 06:26:19;;;;;;;;;;;;;;;18.51;100.00;101985.19;5032639;28;20015;-72
2023/08/22 06:28:46;;;;;;;;;;;;;;;18.63;100.00;101983.16;5064940;28;19921;-72
2023/08/22 06:31:11;;;;;;;;;;;;;;;18.66;100.00;101989.16;5049177;28;19967;-72
2023/08/22 06:33:36;;;;;;;;;;;;;;;18.80;100.00;101979.69;5032923;28;19929;-71
2023/08/22 06:36:02;;;;;;;;;;;;;;;18.89;100.00;101983.41;5034121;28;20318;-72
2023/08/22 06:38:27;;;;;;;;;;;;;;;18.96;100.00;101978.25;5031706;28;20031;-72
2023/08/22 06:40:52;;;;;;;;;;;;;;;19.11;100.00;101971.34;5059378;28;20410;-72
2023/08/22 06:43:18;;;;;;;;;;;;;;;19.27;100.00;101972.56;5028220;28;19913;-72
2023/08/22 06:45:43;;;;;;;;;;;;;;;19.42;100.00;101975.66;5063597;28;19921;-72
2023/08/22 06:48:09;;;;;;;;;;;;;;;19.55;100.00;101976.19;5059139;28;19931;-72
2023/08/22 06:50:35;;;;;;;;;;;;;;;19.67;100.00;101978.69;5034306;28;19927;-72
2023/08/22 06:53:00;;;;;;;;;;;;;;;19.76;100.00;101980.50;5034549;28;19917;-72
2023/08/22 06:55:25;;;;;;;;;;;;;;;19.95;100.00;101990.47;5032243;28;19928;-72
2023/08/22 06:57:50;;;;;;;;;;;;;;;20.12;100.00;101986.06;5032583;28;20002;-72
2023/08/22 07:00:16;;;;;;;;;;;;;;;20.22;100.00;101991.44;5063564;28;19921;-72
2023/08/22 07:02:42;;;;;;;;;;;;;;;20.38;100.00;101988.00;5033085;28;19924;-72
2023/08/22 07:05:10;;;;;;;;;;;;;;;20.60;100.00;101994.81;5064354;28;19921;-72
2023/08/22 07:07:36;;;;;;;;;;;;;;;20.75;100.00;101997.84;5016775;28;19931;-72
2023/08/22 07:10:03;;;;;;;;;;;;;;;20.90;100.00;102000.88;5066001;28;20988;-72
2023/08/22 07:12:28;;;;;;;;;;;;;;;21.01;100.00;101994.28;5035778;28;19912;-72
2023/08/22 07:14:53;;;;;;;;;;;;;;;21.10;100.00;101998.81;5062373;28;19986;-72
2023/08/22 07:17:18;;;;;;;;;;;;;;;21.24;100.00;101991.00;5047655;28;20574;-73
2023/08/22 07:19:43;;;;;;;;;;;;;;;21.24;100.00;101986.41;5061835;28;20016;-71
2023/08/22 07:22:10;;;;;;;;;;;;;;;21.32;100.00;102002.00;5059762;28;20128;-72
2023/08/22 07:24:36;;;;;;;;;;;;;;;21.39;100.00;102002.19;5032165;28;20007;-72
2023/08/22 07:27:01;;;;;;;;;;;;;;;21.44;100.00;102002.56;5036644;28;19925;-72
2023/08/22 07:29:27;;;;;;;;;;;;;;;21.42;100.00;101991.81;5060377;28;19960;-71
2023/08/22 07:31:57;;;;;;;;;;;;;;;21.29;100.00;101996.84;5062404;28;19921;-73
2023/08/22 07:34:23;;;;;;;;;;;;;;;21.11;100.00;102008.69;5038555;28;19921;-73
2023/08/22 07:36:48;;;;;;;;;;;;;;;21.36;100.00;101999.78;5032285;28;19974;-72
2023/08/22 07:39:13;;;;;;;;;;;;;;;21.48;100.00;101998.47;5030579;28;19979;-72
2023/08/22 07:41:38;;;;;;;;;;;;;;;21.77;100.00;101993.66;5026107;28;20288;-72
2023/08/22 07:44:04;;;;;;;;;;;;;;;21.81;100.00;101990.44;5032515;28;20597;-71
2023/08/22 07:46:29;;;;;;;;;;;;;;;21.81;100.00;101998.66;5059529;28;20340;-72
2023/08/22 07:48:54;;;;;;;;;;;;;;;21.76;100.00;101991.94;5029645;28;19956;-72
2023/08/22 07:51:19;;;;;;;;;;;;;;;22.09;100.00;101992.03;5030904;28;19996;-71
2023/08/22 07:53:44;;;;;;;;;;;;;;;22.27;100.00;101995.47;5027256;28;19921;-72
2023/08/22 07:56:10;;;;;;;;;;;;;;;22.44;100.00;101999.13;5031206;28;20357;-72
2023/08/22 07:58:35;;;;;;;;;;;;;;;22.42;100.00;102003.88;5030326;28;19931;-71
2023/08/22 08:01:03;;;;;;;;;;;;;;;22.38;100.00;101998.91;5059008;28;19944;-72
2023/08/22 08:03:28;;;;;;;;;;;;;;;22.27;100.00;101997.38;5031459;28;20430;-74
2023/08/22 08:05:54;;;;;;;;;;;;;;;22.40;100.00;101999.59;5033077;28;19920;-72
2023/08/22 08:08:19;;;;;;;;;;;;;;;22.61;100.00;101999.13;5017338;28;19932;-72
2023/08/22 08:10:45;;;;;;;;;;;;;;;22.73;100.00;102003.22;5059396;28;19956;-71
2023/08/22 08:13:10;;;;;;;;;;;;;;;22.95;100.00;102014.47;5062100;28;19921;-71
2023/08/22 08:15:35;;;;;;;;;;;;;;;23.15;100.00;102017.72;5036611;28;19927;-71
2023/08/22 08:18:01;;;;;;;;;;;;;;;23.45;100.00;102009.78;5034239;28;20007;-71
2023/08/22 08:20:26;;;;;;;;;;;;;;;23.64;100.00;102013.13;5039283;28;19935;-72
2023/08/22 08:22:51;;;;;;;;;;;;;;;23.44;100.00;102013.56;5035279;28;19947;-72
2023/08/22 08:25:17;;;;;;;;;;;;;;;23.42;100.00;102017.50;5040622;28;19913;-71
2023/08/22 08:27:42;;;;;;;;;;;;;;;23.47;100.00;102021.44;5037965;28;20109;-71
2023/08/22 08:30:10;;;;;;;;;;;;;;;23.47;100.00;102024.16;5036148;28;19913;-71
2023/08/22 08:32:35;;;;;;;;;;;;;;;23.30;100.00;102023.34;5040564;28;19921;-71
2023/08/22 08:35:00;;;;;;;;;;;;;;;22.80;100.00;102029.91;5039644;28;19944;-72
2023/08/22 08:37:26;;;;;;;;;;;;;;;22.92;100.00;102023.03;5036450;28;19948;-72
2023/08/22 08:39:51;;;;;;;;;;;;;;;23.15;100.00;102025.94;5035297;28;19974;-72
2023/08/22 08:42:16;;;;;;;;;;;;;;;23.17;100.00;102028.50;5036198;28;19920;-73
2023/08/22 08:44:42;;;;;;;;;;;;;;;23.24;100.00;102028.69;5033425;28;19960;-73
2023/08/22 08:47:08;;;;;;;;;;;;;;;22.99;100.00;102026.81;5037514;28;20027;-72
2023/08/22 08:49:34;;;;;;;;;;;;;;;23.05;100.00;102025.25;5020149;28;19929;-73
2023/08/22 08:52:03;;;;;;;;;;;;;;;23.26;100.00;102022.00;5034848;28;19921;-71
2023/08/22 08:54:29;;;;;;;;;;;;;;;23.33;100.00;102028.50;5035373;28;20014;-73
2023/08/22 08:56:54;;;;;;;;;;;;;;;23.47;100.00;102017.81;5037212;28;20412;-72
2023/08/22 08:59:19;;;;;;;;;;;;;;;23.54;100.00;102017.97;5034316;28;19960;-72
2023/08/22 09:01:45;;;;;;;;;;;;;;;23.44;100.00;102027.25;5032445;28;19932;-72
2023/08/22 09:04:11;;;;;;;;;;;;;;;23.62;100.00;102024.28;5063292;28;20020;-72
2023/08/22 09:06:36;;;;;;;;;;;;;;;23.77;100.00;102024.38;5033532;28;19958;-71
2023/08/22 09:09:07;;;;;;;;;;;;;;;23.57;100.00;102021.22;5034783;28;19917;-71
2023/08/22 09:11:32;;;;;;;;;;;;;;;23.66;100.00;102027.50;5035955;28;19931;-72
2023/08/22 09:13:57;;;;;;;;;;;;;;;23.52;100.00;102020.88;5064798;28;19925;-72
2023/08/22 09:16:23;;;;;;;;;;;;;;;23.13;100.00;102019.75;5066123;28;20080;-71
2023/08/22 09:18:48;;;;;;;;;;;;;;;23.30;100.00;102022.53;5033949;28;19931;-72
2023/08/22 09:21:14;;;;;;;;;;;;;;;23.52;100.00;102023.63;5036496;28;19921;-72
2023/08/22 09:23:40;;;;;;;;;;;;;;;23.76;100.00;102022.69;5034898;28;19978;-72
2023/08/22 09:26:05;;;;;;;;;;;;;;;24.01;100.00;102024.44;5032716;28;19926;-72
2023/08/22 09:28:30;;;;;;;;;;;;;;;24.19;100.00;102019.56;5036621;28;19940;-74
2023/08/22 09:30:55;;;;;;;;;;;;;;;24.27;100.00;102016.72;5037473;28;19956;-74
2023/08/22 09:33:20;;;;;;;;;;;;;;;24.27;100.00;102015.91;5064062;28;19927;-71
2023/08/22 09:35:48;;;;;;;;;;;;;;;24.39;100.00;102021.81;5032533;28;19999;-71
2023/08/22 09:38:13;;;;;;;;;;;;;;;24.34;96.71;102032.47;5061776;28;20395;-69
2023/08/22 09:40:48;;;;;;;;;;;;;;;24.48;98.60;102030.84;5046504;28;19925;-71
2023/08/22 09:43:13;;;;;;;;;;;;;;;24.61;99.32;102027.47;5032656;28;19942;-72
2023/08/22 09:45:42;;;;;;;;;;;;;;;24.85;100.00;102026.44;5067372;28;20123;-74
2023/08/22 09:48:07;;;;;;;;;;;;;;;24.82;94.46;102035.06;5032047;28;19917;-71
2023/08/22 09:50:34;;;;;;;;;;;;;;;24.98;95.85;102028.56;5035392;28;19967;-73
2023/08/22 09:53:00;;;;;;;;;;;;;;;25.10;95.50;102024.28;5066555;28;19983;-73
2023/08/22 09:55:26;;;;;;;;;;;;;;;24.78;100.00;102015.31;5036343;28;20310;-71
2023/08/22 09:57:51;;;;;;;;;;;;;;;24.78;100.00;102011.75;5048291;28;20010;-72
2023/08/22 10:00:16;;;;;;;;;;;;;;;24.49;98.55;102008.72;5067106;28;19948;-74
2023/08/22 10:02:41;;;;;;;;;;;;;;;24.38;98.95;102014.63;5035528;28;19952;-71
2023/08/22 10:05:07;;;;;;;;;;;;;;;24.55;100.00;102013.44;5068535;28;20011;-73
2023/08/22 10:07:32;;;;;;;;;;;;;;;24.77;100.00;102018.28;5048091;28;19921;-74
2023/08/22 10:09:57;;;;;;;;;;;;;;;24.93;96.88;102020.84;5036044;28;20115;-72
2023/08/22 10:12:23;;;;;;;;;;;;;;;24.83;98.56;102034.00;5018389;28;19929;-73
2023/08/22 10:14:48;;;;;;;;;;;;;;;25.10;96.22;102032.53;5018542;28;19921;-71
2023/08/22 10:17:14;;;;;;;;;;;;;;;25.28;88.29;102026.69;5048443;28;19920;-72
2023/08/22 10:19:39;;;;;;;;;;;;;;;25.27;87.08;102018.63;5019266;28;20442;-74
2023/08/22 10:22:05;;;;;;;;;;;;;;;24.81;96.75;102014.13;5050774;28;20011;-74
2023/08/22 10:24:30;;;;;;;;;;;;;;;24.94;95.42;102013.47;5063892;28;19939;-73
2023/08/22 10:27:00;;;;;;;;;;;;;;;25.01;93.35;102015.28;5067690;28;19925;-72
2023/08/22 10:29:27;;;;;;;;;;;;;;;24.95;99.22;102015.19;5065178;28;19927;-74
2023/08/22 10:32:02;;;;;;;;;;;;;;;25.12;95.96;102021.38;5061159;28;19920;-74
2023/08/22 10:34:33;;;;;;;;;;;;;;;25.49;84.15;102011.34;5032758;28;20375;-73
2023/08/22 10:37:01;;;;;;;;;;;;;;;25.56;84.83;102005.91;5034419;28;19969;-74
2023/08/22 10:39:39;;;;;;;;;;;;;;;25.53;83.06;102006.34;5066802;28;20405;-72
2023/08/22 10:42:05;;;;;;;;;;;;;;;26.00;82.92;102012.38;5067069;28;19963;-72
2023/08/22 10:44:30;;;;;;;;;;;;;;;26.28;82.49;102009.78;5065378;28;19921;-74
2023/08/22 10:47:02;;;;;;;;;;;;;;;26.34;78.58;102010.88;5065112;28;20409;-73
2023/08/22 10:49:28;;;;;;;;;;;;;;;26.72;74.07;102023.50;5034388;28;19927;-72
2023/08/22 10:52:09;;;;;;;;;;;;;;;27.04;72.11;102011.06;5036467;28;20071;-73
2023/08/22 10:54:53;;;;;;;;;;;;;;;27.35;65.84;102007.00;5063821;28;19921;-73
2023/08/22 10:57:18;;;;;;;;;;;;;;;27.40;62.80;102004.50;5033478;28;19921;-73
2023/08/22 10:59:59;;;;;;;;;;;;;;;27.38;62.09;102003.00;5048765;28;19948;-75
2023/08/22 11:02:27;;;;;;;;;;;;;;;27.98;60.46;101997.75;5032785;28;20227;-74
2023/08/22 11:04:52;;;;;;;;;;;;;;;28.57;55.57;101998.09;5031410;28;19945;-75
2023/08/22 11:07:18;;;;;;;;;;;;;;;28.71;55.33;102014.66;5017349;28;19921;-75
2023/08/22 11:09:43;;;;;;;;;;;;;;;28.91;54.29;102009.16;5064691;28;19920;-75
2023/08/22 11:12:18;;;;;;;;;;;;;;;28.55;52.56;101996.59;5036943;28;20184;-76
2023/08/22 11:14:43;;;;;;;;;;;;;;;28.47;53.58;101999.56;5046878;28;19956;-75
2023/08/22 11:17:09;;;;;;;;;;;;;;;28.48;54.87;101990.19;5065162;28;19971;-76
2023/08/22 11:19:35;;;;;;;;;;;;;;;28.41;54.75;102004.88;5035883;28;20443;-75
2023/08/22 11:22:00;;;;;;;;;;;;;;;28.33;53.82;102001.47;5049303;28;20366;-75
2023/08/22 11:24:26;;;;;;;;;;;;;;;27.68;53.15;102011.00;5016752;28;19917;-75
2023/08/22 11:26:52;;;;;;;;;;;;;;;27.62;51.53;102006.34;5044941;28;20335;-74
2023/08/22 11:29:21;;;;;;;;;;;;;;;27.51;50.12;102014.13;5047989;28;19927;-73
2023/08/22 11:31:46;;;;;;;;;;;;;;;27.38;51.65;102017.63;5032502;28;19928;-75
2023/08/22 11:34:11;;;;;;;;;;;;;;;27.21;51.32;102019.03;5065398;28;20188;-75
2023/08/22 11:36:37;;;;;;;;;;;;;;;26.86;53.87;102022.59;5031828;28;20002;-74
2023/08/22 11:39:03;;;;;;;;;;;;;;;26.72;53.27;102021.63;5044158;28;20019;-74
2023/08/22 11:41:28;;;;;;;;;;;;;;;26.67;55.36;102015.84;5064115;28;20399;-75
2023/08/22 11:43:55;;;;;;;;;;;;;;;26.48;55.57;102021.00;5062649;28;19927;-74
2023/08/22 11:46:22;;;;;;;;;;;;;;;26.27;50.46;102026.47;5050159;28;20137;-72
2023/08/22 11:48:48;;;;;;;;;;;;;;;26.25;52.57;102007.41;5035662;28;19924;-75
2023/08/22 11:51:18;;;;;;;;;;;;;;;26.27;50.50;102026.47;5048688;28;19921;-75
2023/08/22 11:53:44;;;;;;;;;;;;;;;26.60;50.05;102023.19;5064613;28;19978;-73
2023/08/22 11:56:09;;;;;;;;;;;;;;;26.40;49.96;102011.97;5065969;28;20367;-75
2023/08/22 11:58:35;;;;;;;;;;;;;;;26.40;49.30;102012.84;5035915;28;20384;-75
2023/08/22 12:01:00;;;;;;;;;;;;;;;26.23;48.68;102015.00;5038949;28;19927;-75
2023/08/22 12:03:37;;;;;;;;;;;;;;;26.18;54.34;102025.75;5019143;28;20085;-75
2023/08/22 12:06:09;;;;;;;;;;;;;;;26.02;50.90;102033.19;5038121;28;20402;-74
2023/08/22 12:08:35;;;;;;;;;;;;;;;26.06;57.49;102019.88;5035045;28;19928;-77
2023/08/22 12:11:01;;;;;;;;;;;;;;;25.90;54.62;102012.69;5067239;28;19974;-76
2023/08/22 12:13:26;;;;;;;;;;;;;;;25.60;52.35;102013.63;5065424;28;20359;-74
2023/08/22 12:15:51;;;;;;;;;;;;;;;25.72;57.05;102016.72;5065585;28;19992;-76
2023/08/22 12:18:17;;;;;;;;;;;;;;;25.65;55.60;102023.19;5035608;28;19925;-76
2023/08/22 12:20:42;;;;;;;;;;;;;;;25.67;59.23;102021.09;5070227;28;20139;-76